Airport View

Enter AWOS ICAO identifier for current METAR.

ex. KFNL

KHEQ 112130Z AUTO 17012KT 10SM CLR 12/M07 A2996 RMK AO2

11 Dec 2019 21:54

Frequency: 119.275

Phone: 970-854-3679

Other Area AWOS: K2V5 - K2V6 - KOGA - KSTK

TAF KSNY 111721Z 1118/1218 20013KT P6SM BKN200 FM120300 30013KT P6SM BKN200 WS020/30040KT